sensor_id;sensor_type;location;lat;lon;timestamp;temperature;humidity
43647;DHT22;56152;49.996;18.980;2023-05-10T00:03:27;7.10;70.90
43647;DHT22;56152;49.996;18.980;2023-05-10T00:08:35;7.00;71.30
43647;DHT22;56152;49.996;18.980;2023-05-10T00:13:37;6.90;71.30
43647;DHT22;56152;49.996;18.980;2023-05-10T00:18:41;6.80;71.50
43647;DHT22;56152;49.996;18.980;2023-05-10T00:23:45;6.80;72.60
43647;DHT22;56152;49.996;18.980;2023-05-10T00:28:49;6.70;72.20
43647;DHT22;56152;49.996;18.980;2023-05-10T00:33:52;6.60;72.50
43647;DHT22;56152;49.996;18.980;2023-05-10T00:39:07;6.60;72.70
43647;DHT22;56152;49.996;18.980;2023-05-10T00:44:09;6.50;72.80
43647;DHT22;56152;49.996;18.980;2023-05-10T00:49:19;6.50;73.00
43647;DHT22;56152;49.996;18.980;2023-05-10T00:54:23;6.40;73.20
43647;DHT22;56152;49.996;18.980;2023-05-10T00:59:25;6.30;73.20
43647;DHT22;56152;49.996;18.980;2023-05-10T01:04:27;6.30;73.50
43647;DHT22;56152;49.996;18.980;2023-05-10T01:09:32;6.20;73.70
43647;DHT22;56152;49.996;18.980;2023-05-10T01:14:34;6.20;73.80
43647;DHT22;56152;49.996;18.980;2023-05-10T01:19:39;6.10;74.00
43647;DHT22;56152;49.996;18.980;2023-05-10T01:30:47;6.00;74.30
43647;DHT22;56152;49.996;18.980;2023-05-10T01:36:03;5.90;74.40
43647;DHT22;56152;49.996;18.980;2023-05-10T01:41:13;5.80;74.70
43647;DHT22;56152;49.996;18.980;2023-05-10T01:46:20;5.70;75.10
43647;DHT22;56152;49.996;18.980;2023-05-10T01:51:38;5.70;75.40
43647;DHT22;56152;49.996;18.980;2023-05-10T01:56:41;5.60;75.50
43647;DHT22;56152;49.996;18.980;2023-05-10T02:01:46;5.60;75.80
43647;DHT22;56152;49.996;18.980;2023-05-10T02:06:51;5.50;76.00
43647;DHT22;56152;49.996;18.980;2023-05-10T02:11:56;5.50;76.30
43647;DHT22;56152;49.996;18.980;2023-05-10T02:17:02;5.50;76.40
43647;DHT22;56152;49.996;18.980;2023-05-10T02:22:11;5.40;76.60
43647;DHT22;56152;49.996;18.980;2023-05-10T02:27:17;5.40;76.70
43647;DHT22;56152;49.996;18.980;2023-05-10T02:32:24;5.30;77.10
43647;DHT22;56152;49.996;18.980;2023-05-10T02:37:30;5.30;77.20
43647;DHT22;56152;49.996;18.980;2023-05-10T02:42:36;5.30;77.40
43647;DHT22;56152;49.996;18.980;2023-05-10T02:47:39;5.20;77.60
43647;DHT22;56152;49.996;18.980;2023-05-10T02:52:50;5.20;77.80
43647;DHT22;56152;49.996;18.980;2023-05-10T02:57:58;5.20;78.00
43647;DHT22;56152;49.996;18.980;2023-05-10T03:03:00;5.10;78.20
43647;DHT22;56152;49.996;18.980;2023-05-10T03:08:05;5.10;78.40
43647;DHT22;56152;49.996;18.980;2023-05-10T03:13:12;5.00;78.40
43647;DHT22;56152;49.996;18.980;2023-05-10T03:18:23;5.00;78.70
43647;DHT22;56152;49.996;18.980;2023-05-10T03:23:37;4.90;78.70
43647;DHT22;56152;49.996;18.980;2023-05-10T03:28:48;4.90;78.90
43647;DHT22;56152;49.996;18.980;2023-05-10T03:33:52;4.90;79.10
43647;DHT22;56152;49.996;18.980;2023-05-10T03:39:05;4.90;79.30
43647;DHT22;56152;49.996;18.980;2023-05-10T03:44:08;5.00;79.40
43647;DHT22;56152;49.996;18.980;2023-05-10T03:49:10;5.00;79.40
43647;DHT22;56152;49.996;18.980;2023-05-10T03:54:16;5.10;79.30
43647;DHT22;56152;49.996;18.980;2023-05-10T03:59:19;5.20;79.50
43647;DHT22;56152;49.996;18.980;2023-05-10T04:04:20;5.30;79.40
43647;DHT22;56152;49.996;18.980;2023-05-10T04:09:28;5.60;79.50
43647;DHT22;56152;49.996;18.980;2023-05-10T04:14:30;5.80;79.00
43647;DHT22;56152;49.996;18.980;2023-05-10T04:19:34;6.10;78.90
43647;DHT22;56152;49.996;18.980;2023-05-10T04:24:39;6.40;78.40
43647;DHT22;56152;49.996;18.980;2023-05-10T04:29:42;6.80;78.10
43647;DHT22;56152;49.996;18.980;2023-05-10T04:34:52;7.10;77.30
43647;DHT22;56152;49.996;18.980;2023-05-10T04:39:56;7.40;76.80
43647;DHT22;56152;49.996;18.980;2023-05-10T04:45:07;7.70;76.40
43647;DHT22;56152;49.996;18.980;2023-05-10T04:50:10;8.00;75.90
43647;DHT22;56152;49.996;18.980;2023-05-10T04:55:14;8.30;75.50
43647;DHT22;56152;49.996;18.980;2023-05-10T05:00:17;8.70;74.60
43647;DHT22;56152;49.996;18.980;2023-05-10T05:05:20;9.20;73.70
43647;DHT22;56152;49.996;18.980;2023-05-10T05:10:33;9.50;72.90
43647;DHT22;56152;49.996;18.980;2023-05-10T05:15:35;9.90;72.10
43647;DHT22;56152;49.996;18.980;2023-05-10T05:20:44;10.20;71.60
43647;DHT22;56152;49.996;18.980;2023-05-10T05:25:51;10.60;71.00
43647;DHT22;56152;49.996;18.980;2023-05-10T05:30:53;10.80;70.30
43647;DHT22;56152;49.996;18.980;2023-05-10T05:35:56;11.20;69.60
43647;DHT22;56152;49.996;18.980;2023-05-10T05:41:05;11.70;68.80
43647;DHT22;56152;49.996;18.980;2023-05-10T05:46:15;12.20;67.90
43647;DHT22;56152;49.996;18.980;2023-05-10T05:51:21;12.50;66.70
43647;DHT22;56152;49.996;18.980;2023-05-10T05:56:27;12.90;65.90
43647;DHT22;56152;49.996;18.980;2023-05-10T06:01:30;13.10;65.30
43647;DHT22;56152;49.996;18.980;2023-05-10T06:06:33;13.50;64.70
43647;DHT22;56152;49.996;18.980;2023-05-10T06:11:39;13.80;64.20
43647;DHT22;56152;49.996;18.980;2023-05-10T06:16:44;14.20;63.30
43647;DHT22;56152;49.996;18.980;2023-05-10T06:21:53;14.50;62.80
43647;DHT22;56152;49.996;18.980;2023-05-10T06:27:02;14.60;62.10
43647;DHT22;56152;49.996;18.980;2023-05-10T06:32:06;14.80;60.30
43647;DHT22;56152;49.996;18.980;2023-05-10T06:37:09;15.20;61.40
43647;DHT22;56152;49.996;18.980;2023-05-10T06:42:17;15.60;59.90
43647;DHT22;56152;49.996;18.980;2023-05-10T06:47:25;15.70;59.30
43647;DHT22;56152;49.996;18.980;2023-05-10T06:52:28;16.00;58.80
43647;DHT22;56152;49.996;18.980;2023-05-10T06:57:34;16.30;58.60
43647;DHT22;56152;49.996;18.980;2023-05-10T07:02:45;16.80;57.60
43647;DHT22;56152;49.996;18.980;2023-05-10T07:07:48;17.00;56.20
43647;DHT22;56152;49.996;18.980;2023-05-10T07:13:04;17.10;56.60
43647;DHT22;56152;49.996;18.980;2023-05-10T07:18:10;17.40;55.80
43647;DHT22;56152;49.996;18.980;2023-05-10T07:23:26;17.50;55.20
43647;DHT22;56152;49.996;18.980;2023-05-10T07:28:40;17.80;55.50
43647;DHT22;56152;49.996;18.980;2023-05-10T07:33:42;18.10;54.70
43647;DHT22;56152;49.996;18.980;2023-05-10T07:38:49;18.10;54.80
43647;DHT22;56152;49.996;18.980;2023-05-10T07:43:57;18.40;53.90
43647;DHT22;56152;49.996;18.980;2023-05-10T07:49:04;18.70;53.90
43647;DHT22;56152;49.996;18.980;2023-05-10T07:54:08;18.80;52.80
43647;DHT22;56152;49.996;18.980;2023-05-10T07:59:18;18.90;52.80
43647;DHT22;56152;49.996;18.980;2023-05-10T08:04:30;19.10;52.50
43647;DHT22;56152;49.996;18.980;2023-05-10T08:09:34;19.40;52.00
43647;DHT22;56152;49.996;18.980;2023-05-10T08:14:51;19.30;51.90
43647;DHT22;56152;49.996;18.980;2023-05-10T08:19:55;19.50;50.90
43647;DHT22;56152;49.996;18.980;2023-05-10T08:25:07;19.60;50.90
43647;DHT22;56152;49.996;18.980;2023-05-10T08:30:22;19.60;50.50
43647;DHT22;56152;49.996;18.980;2023-05-10T08:35:27;19.70;50.20
43647;DHT22;56152;49.996;18.980;2023-05-10T08:40:39;19.80;50.30
43647;DHT22;56152;49.996;18.980;2023-05-10T08:45:52;20.20;50.30
43647;DHT22;56152;49.996;18.980;2023-05-10T08:51:00;20.40;49.40
43647;DHT22;56152;49.996;18.980;2023-05-10T08:56:06;20.50;49.40
43647;DHT22;56152;49.996;18.980;2023-05-10T09:01:31;20.30;49.90
43647;DHT22;56152;49.996;18.980;2023-05-10T09:06:36;20.60;48.30
43647;DHT22;56152;49.996;18.980;2023-05-10T09:11:44;20.80;48.90
43647;DHT22;56152;49.996;18.980;2023-05-10T09:17:00;20.70;48.60
43647;DHT22;56152;49.996;18.980;2023-05-10T09:22:10;20.60;47.90
43647;DHT22;56152;49.996;18.980;2023-05-10T09:27:26;20.60;48.20
43647;DHT22;56152;49.996;18.980;2023-05-10T09:32:41;20.60;48.40
43647;DHT22;56152;49.996;18.980;2023-05-10T09:37:48;20.70;47.60
43647;DHT22;56152;49.996;18.980;2023-05-10T09:42:57;20.90;48.40
43647;DHT22;56152;49.996;18.980;2023-05-10T09:48:03;21.30;47.70
43647;DHT22;56152;49.996;18.980;2023-05-10T09:53:07;21.30;47.40
43647;DHT22;56152;49.996;18.980;2023-05-10T09:58:10;21.50;46.90
43647;DHT22;56152;49.996;18.980;2023-05-10T10:03:17;21.10;47.30
43647;DHT22;56152;49.996;18.980;2023-05-10T10:08:20;20.90;47.80
43647;DHT22;56152;49.996;18.980;2023-05-10T10:13:23;20.30;48.70
43647;DHT22;56152;49.996;18.980;2023-05-10T10:18:28;19.80;48.40
43647;DHT22;56152;49.996;18.980;2023-05-10T10:23:32;19.50;48.90
43647;DHT22;56152;49.996;18.980;2023-05-10T10:28:39;19.30;49.00
43647;DHT22;56152;49.996;18.980;2023-05-10T10:34:01;19.00;49.00
43647;DHT22;56152;49.996;18.980;2023-05-10T10:39:10;18.90;49.10
43647;DHT22;56152;49.996;18.980;2023-05-10T10:44:36;19.00;49.00
43647;DHT22;56152;49.996;18.980;2023-05-10T10:56:05;19.00;49.00
43647;DHT22;56152;49.996;18.980;2023-05-10T11:01:14;19.10;48.90
43647;DHT22;56152;49.996;18.980;2023-05-10T11:06:28;18.80;49.00
43647;DHT22;56152;49.996;18.980;2023-05-10T11:11:52;18.80;48.60
43647;DHT22;56152;49.996;18.980;2023-05-10T11:16:55;18.80;49.40
43647;DHT22;56152;49.996;18.980;2023-05-10T11:22:12;19.00;48.70
43647;DHT22;56152;49.996;18.980;2023-05-10T11:27:16;19.30;48.00
43647;DHT22;56152;49.996;18.980;2023-05-10T11:32:19;19.30;47.70
43647;DHT22;56152;49.996;18.980;2023-05-10T11:37:27;19.10;47.90
43647;DHT22;56152;49.996;18.980;2023-05-10T11:42:34;19.10;47.70
43647;DHT22;56152;49.996;18.980;2023-05-10T11:47:39;19.10;48.50
43647;DHT22;56152;49.996;18.980;2023-05-10T11:52:43;19.30;47.80
43647;DHT22;56152;49.996;18.980;2023-05-10T11:57:52;19.40;48.00
43647;DHT22;56152;49.996;18.980;2023-05-10T12:02:57;19.80;47.80
43647;DHT22;56152;49.996;18.980;2023-05-10T12:08:19;20.20;47.00
43647;DHT22;56152;49.996;18.980;2023-05-10T12:13:25;20.20;46.80
43647;DHT22;56152;49.996;18.980;2023-05-10T12:18:28;20.00;47.00
43647;DHT22;56152;49.996;18.980;2023-05-10T12:23:32;19.70;47.40
43647;DHT22;56152;49.996;18.980;2023-05-10T12:28:39;20.00;48.20
43647;DHT22;56152;49.996;18.980;2023-05-10T12:33:43;20.60;46.70
43647;DHT22;56152;49.996;18.980;2023-05-10T12:38:45;21.10;46.50
43647;DHT22;56152;49.996;18.980;2023-05-10T12:43:51;21.60;45.50
43647;DHT22;56152;49.996;18.980;2023-05-10T12:48:53;21.80;45.00
43647;DHT22;56152;49.996;18.980;2023-05-10T12:53:58;21.60;44.80
43647;DHT22;56152;49.996;18.980;2023-05-10T12:59:03;21.30;45.00
43647;DHT22;56152;49.996;18.980;2023-05-10T13:04:09;21.00;45.00
43647;DHT22;56152;49.996;18.980;2023-05-10T13:09:12;20.70;45.50
43647;DHT22;56152;49.996;18.980;2023-05-10T13:14:18;20.60;46.20
43647;DHT22;56152;49.996;18.980;2023-05-10T13:19:22;20.60;46.20
43647;DHT22;56152;49.996;18.980;2023-05-10T13:24:24;20.80;46.40
43647;DHT22;56152;49.996;18.980;2023-05-10T13:29:29;21.50;45.60
43647;DHT22;56152;49.996;18.980;2023-05-10T13:34:34;21.70;44.60
43647;DHT22;56152;49.996;18.980;2023-05-10T13:39:46;21.40;44.90
43647;DHT22;56152;49.996;18.980;2023-05-10T13:45:09;21.30;44.50
43647;DHT22;56152;49.996;18.980;2023-05-10T13:50:14;21.00;44.10
43647;DHT22;56152;49.996;18.980;2023-05-10T13:55:16;20.70;45.00
43647;DHT22;56152;49.996;18.980;2023-05-10T14:00:20;20.20;45.10
43647;DHT22;56152;49.996;18.980;2023-05-10T14:05:22;20.20;46.00
43647;DHT22;56152;49.996;18.980;2023-05-10T14:10:25;20.10;46.00
43647;DHT22;56152;49.996;18.980;2023-05-10T14:15:30;19.90;45.60
43647;DHT22;56152;49.996;18.980;2023-05-10T14:20:35;19.70;46.10
43647;DHT22;56152;49.996;18.980;2023-05-10T14:25:39;19.70;46.40
43647;DHT22;56152;49.996;18.980;2023-05-10T14:30:46;20.10;46.30
43647;DHT22;56152;49.996;18.980;2023-05-10T14:35:48;20.70;46.90
43647;DHT22;56152;49.996;18.980;2023-05-10T14:40:51;21.50;45.00
43647;DHT22;56152;49.996;18.980;2023-05-10T14:45:55;21.40;44.40
43647;DHT22;56152;49.996;18.980;2023-05-10T14:50:57;20.90;44.80
43647;DHT22;56152;49.996;18.980;2023-05-10T14:55:59;20.30;45.00
43647;DHT22;56152;49.996;18.980;2023-05-10T15:01:04;19.70;45.70
43647;DHT22;56152;49.996;18.980;2023-05-10T15:06:08;19.40;46.20
43647;DHT22;56152;49.996;18.980;2023-05-10T15:11:11;19.20;46.70
43647;DHT22;56152;49.996;18.980;2023-05-10T15:16:18;19.10;47.00
43647;DHT22;56152;49.996;18.980;2023-05-10T15:21:22;19.30;46.90
43647;DHT22;56152;49.996;18.980;2023-05-10T15:26:24;19.30;46.20
43647;DHT22;56152;49.996;18.980;2023-05-10T15:31:28;19.30;46.20
43647;DHT22;56152;49.996;18.980;2023-05-10T15:36:34;19.40;46.60
43647;DHT22;56152;49.996;18.980;2023-05-10T15:41:48;19.40;46.70
43647;DHT22;56152;49.996;18.980;2023-05-10T15:46:55;19.30;46.50
43647;DHT22;56152;49.996;18.980;2023-05-10T15:52:01;19.20;46.30
43647;DHT22;56152;49.996;18.980;2023-05-10T15:57:04;19.00;46.70
43647;DHT22;56152;49.996;18.980;2023-05-10T16:02:11;18.90;47.00
43647;DHT22;56152;49.996;18.980;2023-05-10T16:07:16;18.90;47.20
43647;DHT22;56152;49.996;18.980;2023-05-10T16:12:26;18.90;47.40
43647;DHT22;56152;49.996;18.980;2023-05-10T16:17:32;18.90;47.30
43647;DHT22;56152;49.996;18.980;2023-05-10T16:22:35;19.00;47.10
43647;DHT22;56152;49.996;18.980;2023-05-10T16:27:37;18.70;47.30
43647;DHT22;56152;49.996;18.980;2023-05-10T16:32:43;18.40;47.80
43647;DHT22;56152;49.996;18.980;2023-05-10T16:37:47;18.20;48.50
43647;DHT22;56152;49.996;18.980;2023-05-10T16:42:50;18.20;48.80
43647;DHT22;56152;49.996;18.980;2023-05-10T16:47:56;18.20;48.70
43647;DHT22;56152;49.996;18.980;2023-05-10T16:52:59;18.20;48.40
43647;DHT22;56152;49.996;18.980;2023-05-10T16:58:07;18.10;48.40
43647;DHT22;56152;49.996;18.980;2023-05-10T17:03:15;17.90;48.60
43647;DHT22;56152;49.996;18.980;2023-05-10T17:08:17;17.90;49.10
43647;DHT22;56152;49.996;18.980;2023-05-10T17:13:20;17.70;49.00
43647;DHT22;56152;49.996;18.980;2023-05-10T17:18:25;17.50;49.10
43647;DHT22;56152;49.996;18.980;2023-05-10T17:23:28;17.40;49.30
43647;DHT22;56152;49.996;18.980;2023-05-10T17:28:31;17.20;49.60
43647;DHT22;56152;49.996;18.980;2023-05-10T17:33:36;17.20;49.90
43647;DHT22;56152;49.996;18.980;2023-05-10T17:38:38;17.10;50.30
43647;DHT22;56152;49.996;18.980;2023-05-10T17:43:43;16.90;50.50
43647;DHT22;56152;49.996;18.980;2023-05-10T17:48:48;16.80;51.10
43647;DHT22;56152;49.996;18.980;2023-05-10T17:53:50;16.60;51.60
43647;DHT22;56152;49.996;18.980;2023-05-10T17:58:53;16.30;51.80
43647;DHT22;56152;49.996;18.980;2023-05-10T18:03:56;16.10;52.20
43647;DHT22;56152;49.996;18.980;2023-05-10T18:08:59;15.90;52.40
43647;DHT22;56152;49.996;18.980;2023-05-10T18:14:01;15.80;53.40
43647;DHT22;56152;49.996;18.980;2023-05-10T18:19:05;15.60;53.00
43647;DHT22;56152;49.996;18.980;2023-05-10T18:24:10;15.40;53.40
43647;DHT22;56152;49.996;18.980;2023-05-10T18:29:12;15.30;53.70
43647;DHT22;56152;49.996;18.980;2023-05-10T18:34:18;15.20;54.00
43647;DHT22;56152;49.996;18.980;2023-05-10T18:39:20;15.10;54.20
43647;DHT22;56152;49.996;18.980;2023-05-10T18:44:23;15.00;54.30
43647;DHT22;56152;49.996;18.980;2023-05-10T18:49:27;14.80;54.50
43647;DHT22;56152;49.996;18.980;2023-05-10T18:54:30;14.70;54.70
43647;DHT22;56152;49.996;18.980;2023-05-10T18:59:44;14.60;54.90
43647;DHT22;56152;49.996;18.980;2023-05-10T19:04:48;14.50;55.10
43647;DHT22;56152;49.996;18.980;2023-05-10T19:09:59;14.40;55.30
43647;DHT22;56152;49.996;18.980;2023-05-10T19:15:05;14.30;55.40
43647;DHT22;56152;49.996;18.980;2023-05-10T19:20:11;14.20;55.60
43647;DHT22;56152;49.996;18.980;2023-05-10T19:25:14;14.20;55.70
43647;DHT22;56152;49.996;18.980;2023-05-10T19:30:17;14.10;55.80
43647;DHT22;56152;49.996;18.980;2023-05-10T19:35:20;13.90;56.20
43647;DHT22;56152;49.996;18.980;2023-05-10T19:40:25;13.80;56.50
43647;DHT22;56152;49.996;18.980;2023-05-10T19:45:28;13.70;56.80
43647;DHT22;56152;49.996;18.980;2023-05-10T19:50:34;13.70;56.80
43647;DHT22;56152;49.996;18.980;2023-05-10T19:55:40;13.60;56.90
43647;DHT22;56152;49.996;18.980;2023-05-10T20:00:43;13.50;57.20
43647;DHT22;56152;49.996;18.980;2023-05-10T20:05:47;13.40;57.40
43647;DHT22;56152;49.996;18.980;2023-05-10T20:10:49;13.40;57.60
43647;DHT22;56152;49.996;18.980;2023-05-10T20:15:54;13.30;57.70
43647;DHT22;56152;49.996;18.980;2023-05-10T20:21:00;13.30;57.60
43647;DHT22;56152;49.996;18.980;2023-05-10T20:26:02;13.20;57.60
43647;DHT22;56152;49.996;18.980;2023-05-10T20:31:05;13.10;57.70
43647;DHT22;56152;49.996;18.980;2023-05-10T20:36:11;13.00;57.90
43647;DHT22;56152;49.996;18.980;2023-05-10T20:41:18;12.90;58.40
43647;DHT22;56152;49.996;18.980;2023-05-10T20:46:27;12.80;58.30
43647;DHT22;56152;49.996;18.980;2023-05-10T20:51:36;12.80;58.50
43647;DHT22;56152;49.996;18.980;2023-05-10T20:56:39;12.60;58.40
43647;DHT22;56152;49.996;18.980;2023-05-10T21:01:42;12.60;58.70
43647;DHT22;56152;49.996;18.980;2023-05-10T21:06:47;12.50;58.90
43647;DHT22;56152;49.996;18.980;2023-05-10T21:11:49;12.40;58.90
43647;DHT22;56152;49.996;18.980;2023-05-10T21:16:54;12.30;59.20
43647;DHT22;56152;49.996;18.980;2023-05-10T21:22:01;12.20;59.20
43647;DHT22;56152;49.996;18.980;2023-05-10T21:27:05;12.20;59.30
43647;DHT22;56152;49.996;18.980;2023-05-10T21:32:11;12.10;59.40
43647;DHT22;56152;49.996;18.980;2023-05-10T21:37:16;12.10;59.50
43647;DHT22;56152;49.996;18.980;2023-05-10T21:42:19;12.00;59.60
43647;DHT22;56152;49.996;18.980;2023-05-10T21:47:23;11.90;59.70
43647;DHT22;56152;49.996;18.980;2023-05-10T21:52:29;11.90;60.00
43647;DHT22;56152;49.996;18.980;2023-05-10T21:57:31;11.80;60.20
43647;DHT22;56152;49.996;18.980;2023-05-10T22:02:33;11.70;60.40
43647;DHT22;56152;49.996;18.980;2023-05-10T22:07:38;11.70;60.60
43647;DHT22;56152;49.996;18.980;2023-05-10T22:12:40;11.60;60.80
43647;DHT22;56152;49.996;18.980;2023-05-10T22:17:43;11.50;60.90
43647;DHT22;56152;49.996;18.980;2023-05-10T22:22:48;11.40;61.20
43647;DHT22;56152;49.996;18.980;2023-05-10T22:27:51;11.40;61.40
43647;DHT22;56152;49.996;18.980;2023-05-10T22:32:55;11.30;61.30
43647;DHT22;56152;49.996;18.980;2023-05-10T22:38:00;11.30;62.00
43647;DHT22;56152;49.996;18.980;2023-05-10T22:43:02;11.20;62.20
43647;DHT22;56152;49.996;18.980;2023-05-10T22:48:07;11.20;61.90
43647;DHT22;56152;49.996;18.980;2023-05-10T22:53:11;11.10;62.20
43647;DHT22;56152;49.996;18.980;2023-05-10T22:58:13;11.10;62.40
43647;DHT22;56152;49.996;18.980;2023-05-10T23:03:16;11.10;62.50
43647;DHT22;56152;49.996;18.980;2023-05-10T23:08:21;11.00;62.70
43647;DHT22;56152;49.996;18.980;2023-05-10T23:13:25;10.90;63.20
43647;DHT22;56152;49.996;18.980;2023-05-10T23:18:28;10.90;63.40
43647;DHT22;56152;49.996;18.980;2023-05-10T23:23:34;10.80;63.70
43647;DHT22;56152;49.996;18.980;2023-05-10T23:28:36;10.70;64.00
43647;DHT22;56152;49.996;18.980;2023-05-10T23:33:38;10.70;64.10
43647;DHT22;56152;49.996;18.980;2023-05-10T23:38:45;10.60;64.50
43647;DHT22;56152;49.996;18.980;2023-05-10T23:43:47;10.50;64.80
43647;DHT22;56152;49.996;18.980;2023-05-10T23:48:50;10.40;65.00
43647;DHT22;56152;49.996;18.980;2023-05-10T23:53:55;10.30;65.20
43647;DHT22;56152;49.996;18.980;2023-05-10T23:58:56;10.30;65.60
